TimeCDT,TemperatureF,Dew PointF,Humidity,Sea Level PressureIn,VisibilityMPH,Wind Direction,Wind SpeedMPH,Gust SpeedMPH,PrecipitationIn,Events,Conditions,WindDirDegrees,DateUTC
12:05 AM,59.0,59.0,100,30.06,2.5,Calm,Calm,-,N/A,,Clear,0,2013-10-01 05:05:00
12:39 AM,59.0,59.0,100,30.05,7.0,Calm,Calm,-,N/A,,Clear,0,2013-10-01 05:39:00
12:56 AM,57.9,57.9,100,30.09,10.0,Calm,Calm,-,N/A,,Clear,0,2013-10-01 05:56:00
1:17 AM,57.2,57.2,100,30.06,1.8,Calm,Calm,-,N/A,,Clear,0,2013-10-01 06:17:00
1:26 AM,57.2,57.2,100,30.06,1.0,Calm,Calm,-,N/A,,Clear,0,2013-10-01 06:26:00
1:35 AM,57.2,57.2,100,30.06,0.8,Calm,Calm,-,N/A,,Clear,0,2013-10-01 06:35:00
1:39 AM,57.2,57.2,100,30.06,1.5,Calm,Calm,-,N/A,,Clear,0,2013-10-01 06:39:00
1:45 AM,57.2,57.2,100,30.06,3.0,Calm,Calm,-,N/A,,Clear,0,2013-10-01 06:45:00
1:56 AM,59.0,59.0,100,30.10,7.0,Calm,Calm,-,N/A,,Clear,0,2013-10-01 06:56:00
2:56 AM,57.9,57.9,100,30.10,6.0,Calm,Calm,-,N/A,,Clear,0,2013-10-01 07:56:00
3:56 AM,59.0,59.0,100,30.12,10.0,Calm,Calm,-,N/A,,Clear,0,2013-10-01 08:56:00
4:56 AM,59.9,59.9,100,30.13,10.0,Calm,Calm,-,N/A,,Clear,0,2013-10-01 09:56:00
5:56 AM,59.9,59.9,100,30.14,10.0,Calm,Calm,-,N/A,,Clear,0,2013-10-01 10:56:00
6:56 AM,61.0,59.9,96,30.16,10.0,Calm,Calm,-,N/A,,Clear,0,2013-10-01 11:56:00
7:56 AM,63.0,61.9,96,30.18,10.0,Calm,Calm,-,N/A,,Clear,0,2013-10-01 12:56:00
8:08 AM,64.4,62.6,94,30.15,10.0,Calm,Calm,-,N/A,,Partly Cloudy,0,2013-10-01 13:08:00
8:28 AM,64.4,62.6,94,30.15,10.0,SSE,5.8,-,N/A,,Mostly Cloudy,160,2013-10-01 13:28:00
8:56 AM,64.9,63.9,96,30.19,10.0,SSE,6.9,-,N/A,,Mostly Cloudy,150,2013-10-01 13:56:00
9:06 AM,66.2,64.4,94,30.16,10.0,South,6.9,-,N/A,,Partly Cloudy,180,2013-10-01 14:06:00
9:56 AM,68.0,64.9,90,30.20,10.0,SSE,8.1,-,N/A,,Scattered Clouds,160,2013-10-01 14:56:00
10:56 AM,72.9,66.9,82,30.19,10.0,SSW,8.1,-,N/A,,Partly Cloudy,200,2013-10-01 15:56:00
11:56 AM,77.0,66.9,71,30.18,10.0,Calm,Calm,-,N/A,,Scattered Clouds,0,2013-10-01 16:56:00
12:03 PM,77.0,66.2,69,30.15,10.0,SSW,6.9,-,N/A,,Mostly Cloudy,200,2013-10-01 17:03:00
12:26 PM,78.8,66.2,65,30.14,10.0,Variable,6.9,-,N/A,,Scattered Clouds,0,2013-10-01 17:26:00
12:56 PM,77.9,66.9,69,30.17,10.0,WSW,6.9,-,N/A,,Mostly Cloudy,240,2013-10-01 17:56:00
1:07 PM,78.8,66.2,65,30.13,10.0,SSW,8.1,-,N/A,,Scattered Clouds,200,2013-10-01 18:07:00
1:16 PM,80.6,66.2,61,30.13,10.0,SSW,6.9,-,N/A,,Mostly Cloudy,210,2013-10-01 18:16:00
1:26 PM,80.6,66.2,61,30.12,10.0,SW,6.9,-,N/A,,Mostly Cloudy,220,2013-10-01 18:26:00
1:56 PM,77.9,66.9,69,30.15,10.0,Calm,Calm,-,N/A,,Partly Cloudy,0,2013-10-01 18:56:00
2:56 PM,81.9,65.8,58,30.13,10.0,SSW,5.8,-,N/A,,Scattered Clouds,200,2013-10-01 19:56:00
3:56 PM,81.9,68.0,63,30.12,10.0,SE,5.8,-,N/A,,Mostly Cloudy,140,2013-10-01 20:56:00
4:56 PM,81.0,68.0,65,30.12,10.0,ESE,4.6,-,N/A,,Scattered Clouds,110,2013-10-01 21:56:00
5:56 PM,77.0,68.9,76,30.13,10.0,Calm,Calm,-,N/A,,Partly Cloudy,0,2013-10-01 22:56:00
6:56 PM,70.9,68.9,93,30.14,10.0,Calm,Calm,-,N/A,,Clear,0,2013-10-01 23:56:00
7:56 PM,68.9,68.9,100,30.15,8.0,Calm,Calm,-,N/A,,Clear,0,2013-10-02 00:56:00
8:56 PM,66.9,66.9,100,30.16,8.0,Calm,Calm,-,N/A,,Clear,0,2013-10-02 01:56:00
9:56 PM,65.8,65.8,100,30.17,9.0,Calm,Calm,-,N/A,,Clear,0,2013-10-02 02:56:00
10:29 PM,64.4,64.4,100,30.13,2.5,Calm,Calm,-,N/A,,Clear,0,2013-10-02 03:29:00
10:44 PM,64.4,64.4,100,30.13,1.2,Calm,Calm,-,N/A,,Clear,0,2013-10-02 03:44:00
10:56 PM,64.9,64.9,100,30.17,4.0,Calm,Calm,-,N/A,,Clear,0,2013-10-02 03:56:00
11:56 PM,63.9,63.9,100,30.17,6.0,Calm,Calm,-,N/A,,Clear,0,2013-10-02 04:56:00